Time;durP1;ratioP1;P1;durP2;ratioP2;P2;SDS_P1;SDS_P2;PMS_P1;PMS_P2;Temp;Humidity;BMP_temperature;BMP_pressure;BME280_temperature;BME280_humidity;BME280_pressure;Samples;Min_cycle;Max_cycle;Signal;HPM_P1;HPM_P2
2021/11/28 00:02:18;;;;;;;11.25;7.47;;;;;;;3.06;81.26;98353.38;5084927;28;20459;-77
2021/11/28 00:04:45;;;;;;;8.80;7.50;;;;;;;3.08;81.18;98351.28;5079753;28;20410;-77
2021/11/28 00:07:25;;;;;;;8.95;7.00;;;;;;;3.11;80.79;98339.28;5073739;28;20396;-77
2021/11/28 00:12:38;;;;;;;8.55;7.05;;;;;;;3.18;80.63;98342.59;5087856;28;20877;-77
2021/11/28 00:15:06;;;;;;;8.23;6.03;;;;;;;3.18;80.81;98339.91;5073448;28;20436;-77
2021/11/28 00:17:31;;;;;;;8.48;5.70;;;;;;;3.17;80.81;98337.47;5092134;28;20855;-77
2021/11/28 00:19:57;;;;;;;10.07;6.30;;;;;;;3.15;80.98;98327.03;5083192;28;20451;-77
2021/11/28 00:22:22;;;;;;;6.25;5.45;;;;;;;3.16;81.49;98327.84;5088444;28;20386;-77
2021/11/28 00:24:50;;;;;;;7.85;5.53;;;;;;;3.16;81.44;98331.31;5075454;28;20590;-77
2021/11/28 00:27:15;;;;;;;10.20;6.15;;;;;;;3.16;81.44;98333.19;5079115;28;20398;-77
2021/11/28 00:29:41;;;;;;;8.27;5.03;;;;;;;3.19;81.49;98333.50;5082067;28;20404;-77
2021/11/28 00:32:06;;;;;;;7.93;5.07;;;;;;;3.22;81.47;98337.53;5088293;28;20406;-77
2021/11/28 00:34:32;;;;;;;8.48;4.93;;;;;;;3.23;81.68;98336.50;5087132;28;20902;-77
2021/11/28 00:36:57;;;;;;;8.40;4.87;;;;;;;3.26;81.67;98341.34;5078741;28;20398;-77
2021/11/28 00:39:22;;;;;;;6.30;4.90;;;;;;;3.27;81.27;98338.41;5084648;28;20969;-77
2021/11/28 00:41:48;;;;;;;5.50;4.23;;;;;;;3.29;81.63;98340.84;5078034;28;20399;-77
2021/11/28 00:44:13;;;;;;;6.03;4.70;;;;;;;3.29;81.38;98344.34;5072880;28;20503;-77
2021/11/28 00:46:38;;;;;;;6.63;4.63;;;;;;;3.29;81.49;98347.00;5073211;28;20395;-77
2021/11/28 00:49:11;;;;;;;7.93;5.07;;;;;;;3.30;81.50;98347.78;5073108;28;20407;-77
2021/11/28 00:51:47;;;;;;;8.10;5.35;;;;;;;3.28;81.51;98341.91;5078339;28;20411;-77
2021/11/28 00:54:14;;;;;;;7.25;5.15;;;;;;;3.26;81.73;98339.44;5074380;28;20392;-77
2021/11/28 00:56:39;;;;;;;7.63;5.22;;;;;;;3.26;81.56;98336.78;5084451;28;20400;-78
2021/11/28 00:59:04;;;;;;;6.57;5.37;;;;;;;3.27;81.56;98335.72;5070683;28;20893;-77
2021/11/28 01:01:30;;;;;;;6.27;5.33;;;;;;;3.27;81.33;98329.56;5073107;28;20431;-77
2021/11/28 01:03:55;;;;;;;7.00;5.18;;;;;;;3.24;81.52;98336.22;5089511;28;20744;-77
2021/11/28 01:06:20;;;;;;;9.50;5.17;;;;;;;3.28;81.33;98336.53;5079219;28;20492;-77
2021/11/28 01:08:46;;;;;;;8.63;5.70;;;;;;;3.33;80.95;98340.06;5073018;28;20391;-77
2021/11/28 01:11:12;;;;;;;12.03;5.63;;;;;;;3.33;80.65;98341.94;5083346;28;20425;-77
2021/11/28 01:13:37;;;;;;;8.13;5.47;;;;;;;3.34;80.65;98343.56;5075985;28;20418;-77
2021/11/28 01:16:03;;;;;;;8.67;5.57;;;;;;;3.32;80.60;98348.38;5077859;28;20413;-77
2021/11/28 01:18:28;;;;;;;11.10;6.13;;;;;;;3.33;80.67;98358.81;5086128;28;20411;-77
2021/11/28 01:20:53;;;;;;;9.43;5.37;;;;;;;3.33;80.47;98363.34;5083073;28;20423;-77
2021/11/28 01:23:18;;;;;;;7.38;5.50;;;;;;;3.33;80.26;98368.72;5078231;28;20936;-77
2021/11/28 01:25:44;;;;;;;9.47;5.57;;;;;;;3.32;80.29;98372.47;5086887;28;20825;-77
2021/11/28 01:28:09;;;;;;;10.63;6.90;;;;;;;3.31;80.54;98374.31;5076222;28;20398;-77
2021/11/28 01:30:35;;;;;;;8.27;5.40;;;;;;;3.33;80.34;98371.38;5084960;28;20931;-77
2021/11/28 01:33:00;;;;;;;7.93;5.90;;;;;;;3.34;81.07;98370.34;5079414;28;20391;-77
2021/11/28 01:35:25;;;;;;;10.00;5.63;;;;;;;3.37;80.83;98375.19;5076636;28;20892;-77
2021/11/28 01:37:51;;;;;;;12.43;6.00;;;;;;;3.36;81.05;98370.91;5071580;28;20400;-77
2021/11/28 01:40:20;;;;;;;7.82;5.10;;;;;;;3.33;81.22;98366.84;5062045;28;20833;-77
2021/11/28 01:42:51;;;;;;;10.65;5.18;;;;;;;3.29;81.17;98372.97;5081734;28;20877;-77
2021/11/28 01:45:25;;;;;;;10.90;5.25;;;;;;;3.32;81.12;98381.31;5093751;28;20445;-77
2021/11/28 01:47:52;;;;;;;6.95;5.25;;;;;;;3.31;81.22;98382.34;5084586;28;20424;-77
2021/11/28 01:50:18;;;;;;;7.30;5.35;;;;;;;3.31;81.33;98381.53;5082049;28;20388;-77
2021/11/28 01:52:44;;;;;;;7.05;4.85;;;;;;;3.31;81.00;98381.53;5072097;28;20885;-77
2021/11/28 01:55:13;;;;;;;8.30;5.57;;;;;;;3.31;81.04;98381.53;5080000;28;20435;-77
2021/11/28 01:57:38;;;;;;;8.48;5.75;;;;;;;3.32;80.80;98380.50;5076624;28;20494;-77
2021/11/28 02:00:14;;;;;;;7.43;5.33;;;;;;;3.34;80.82;98381.03;5071871;28;20507;-77
2021/11/28 02:02:42;;;;;;;8.93;5.37;;;;;;;3.35;80.81;98371.97;5071856;28;20433;-77
2021/11/28 02:05:07;;;;;;;6.15;4.95;;;;;;;3.32;81.17;98373.28;5087987;28;20848;-77
2021/11/28 02:07:33;;;;;;;5.65;4.57;;;;;;;3.29;81.15;98375.66;5053810;28;20458;-77
2021/11/28 02:09:58;;;;;;;8.32;5.40;;;;;;;3.28;81.26;98372.16;5067369;28;20775;-77
2021/11/28 02:12:29;;;;;;;7.67;5.00;;;;;;;3.28;80.94;98380.19;5086383;28;20486;-77
2021/11/28 02:14:55;;;;;;;7.65;4.47;;;;;;;3.30;80.62;98382.59;5054757;28;20391;-77
2021/11/28 02:17:20;;;;;;;6.72;4.97;;;;;;;3.34;80.31;98381.03;5070768;28;20402;-77
2021/11/28 02:19:46;;;;;;;5.10;4.53;;;;;;;3.37;80.00;98378.69;5097600;28;20418;-77
2021/11/28 02:22:11;;;;;;;6.43;4.53;;;;;;;3.35;80.35;98380.81;5071904;28;20743;-77
2021/11/28 02:24:36;;;;;;;9.17;4.90;;;;;;;3.36;80.28;98382.41;5072161;28;20902;-77
2021/11/28 02:27:02;;;;;;;8.73;4.87;;;;;;;3.35;80.52;98378.13;5088910;28;20405;-77
2021/11/28 02:29:27;;;;;;;6.97;5.07;;;;;;;3.31;80.64;98379.69;5083004;28;20497;-77
2021/11/28 02:31:52;;;;;;;7.33;4.40;;;;;;;3.32;80.20;98378.63;5071628;28;20425;-77
2021/11/28 02:34:20;;;;;;;9.77;4.88;;;;;;;3.36;79.46;98384.31;5090081;28;20408;-77
2021/11/28 02:36:49;;;;;;;7.47;5.35;;;;;;;3.41;79.18;98395.06;5071468;28;20387;-77
2021/11/28 02:39:15;;;;;;;6.88;4.75;;;;;;;3.43;79.21;98401.78;5079238;28;20410;-77
2021/11/28 02:41:40;;;;;;;7.30;4.95;;;;;;;3.48;79.85;98409.09;5095313;28;20404;-77
2021/11/28 02:44:06;;;;;;;6.57;5.63;;;;;;;3.49;79.99;98405.34;5100892;28;20474;-77
2021/11/28 02:46:31;;;;;;;6.63;5.00;;;;;;;3.49;80.26;98400.78;5070570;28;20415;-77
2021/11/28 02:48:57;;;;;;;7.27;5.17;;;;;;;3.50;80.30;98407.78;5071734;28;20490;-77
2021/11/28 02:51:22;;;;;;;8.90;5.65;;;;;;;3.47;80.54;98410.13;5097740;28;20422;-77
2021/11/28 02:53:47;;;;;;;7.00;5.40;;;;;;;3.42;81.20;98396.69;5087105;28;20401;-77
2021/11/28 02:56:13;;;;;;;8.80;5.67;;;;;;;3.47;81.01;98394.06;5082796;28;20401;-77
2021/11/28 02:58:38;;;;;;;10.40;5.73;;;;;;;3.46;80.67;98398.59;5051182;28;20376;-77
2021/11/28 03:01:14;;;;;;;6.30;5.57;;;;;;;3.45;80.91;98401.53;5074661;28;20916;-77
2021/11/28 03:03:40;;;;;;;6.25;5.35;;;;;;;3.46;80.63;98411.19;5073616;28;20950;-77
2021/11/28 03:06:05;;;;;;;6.10;4.97;;;;;;;3.44;79.43;98402.59;5064343;28;20758;-77
2021/11/28 03:08:30;;;;;;;7.97;5.30;;;;;;;3.45;79.32;98401.53;5092608;28;20389;-77
2021/11/28 03:10:56;;;;;;;7.60;5.50;;;;;;;3.48;79.99;98399.19;5084793;28;20397;-77
2021/11/28 03:13:25;;;;;;;12.40;7.38;;;;;;;3.49;80.11;98397.31;5077541;28;20383;-77
2021/11/28 03:15:54;;;;;;;7.63;5.83;;;;;;;3.52;79.80;98404.84;5084768;28;20476;-77
2021/11/28 03:18:22;;;;;;;6.77;5.23;;;;;;;3.51;79.45;98403.22;5087988;28;20431;-77
2021/11/28 03:20:51;;;;;;;6.80;5.35;;;;;;;3.51;79.71;98395.19;5080814;28;20492;-77
2021/11/28 03:23:17;;;;;;;8.18;5.38;;;;;;;3.52;79.70;98392.25;5068423;28;20419;-77
2021/11/28 03:25:43;;;;;;;9.98;5.75;;;;;;;3.53;80.12;98382.34;5075137;28;20541;-77
2021/11/28 03:28:16;;;;;;;9.90;6.10;;;;;;;3.50;80.14;98386.34;5084742;28;20871;-77
2021/11/28 03:30:44;;;;;;;9.20;5.65;;;;;;;3.50;79.72;98386.34;5083666;28;20756;-77
2021/11/28 03:33:10;;;;;;;8.10;5.50;;;;;;;3.50;79.80;98383.66;5091228;28;20458;-77
2021/11/28 03:35:36;;;;;;;10.52;5.40;;;;;;;3.51;80.40;98385.28;5074436;28;20412;-77
2021/11/28 03:38:02;;;;;;;9.93;5.67;;;;;;;3.50;80.43;98391.69;5085618;28;20399;-77
2021/11/28 03:40:28;;;;;;;9.13;6.05;;;;;;;3.48;80.58;98384.97;5081482;28;20500;-77
2021/11/28 03:42:53;;;;;;;27.83;12.37;;;;;;;3.45;80.84;98378.25;5087422;28;20521;-77
2021/11/28 03:45:19;;;;;;;49.47;18.50;;;;;;;3.43;80.82;98377.69;5091461;28;20409;-77
2021/11/28 03:47:47;;;;;;;111.57;32.20;;;;;;;3.43;81.00;98375.00;5089003;28;20402;-77
2021/11/28 03:50:14;;;;;;;42.15;14.98;;;;;;;3.45;80.89;98369.41;5074392;28;20724;-77
2021/11/28 03:52:39;;;;;;;18.98;8.50;;;;;;;3.48;80.94;98374.28;5087770;28;20378;-77
2021/11/28 03:55:07;;;;;;;14.73;6.45;;;;;;;3.48;80.62;98374.28;5092420;28;20401;-77
2021/11/28 03:57:33;;;;;;;10.45;6.53;;;;;;;3.48;80.86;98363.56;5087306;28;20466;-77
2021/11/28 03:59:58;;;;;;;9.60;6.00;;;;;;;3.47;80.98;98365.44;5079797;28;20896;-77
2021/11/28 04:02:25;;;;;;;9.02;5.95;;;;;;;3.44;80.85;98355.22;5074275;28;20491;-77
2021/11/28 04:04:50;;;;;;;9.45;6.68;;;;;;;3.44;80.97;98357.06;5089149;28;20443;-77
2021/11/28 04:07:15;;;;;;;14.83;8.07;;;;;;;3.40;80.56;98355.94;5074445;28;20404;-77
2021/11/28 04:09:41;;;;;;;7.80;5.57;;;;;;;3.40;80.77;98361.31;5081977;28;20386;-77
2021/11/28 04:12:07;;;;;;;7.63;5.43;;;;;;;3.39;80.83;98357.03;5064485;28;20801;-77
2021/11/28 04:14:32;;;;;;;5.78;5.22;;;;;;;3.38;80.86;98358.91;5089009;28;20812;-77
2021/11/28 04:16:57;;;;;;;6.93;5.50;;;;;;;3.36;81.07;98355.63;5073833;28;20941;-77
2021/11/28 04:19:23;;;;;;;6.90;4.73;;;;;;;3.37;81.00;98359.94;5083181;28;20400;-77
2021/11/28 04:21:49;;;;;;;5.18;4.60;;;;;;;3.35;80.87;98363.94;5073402;28;20448;-77
2021/11/28 04:24:14;;;;;;;7.07;5.10;;;;;;;3.33;80.43;98372.19;5088419;28;20726;-77
2021/11/28 04:26:40;;;;;;;9.65;5.82;;;;;;;3.35;80.40;98369.28;5077569;28;20391;-77
2021/11/28 04:29:05;;;;;;;8.50;5.80;;;;;;;3.33;80.23;98369.53;5076233;28;20415;-77
2021/11/28 04:31:31;;;;;;;8.53;5.63;;;;;;;3.31;80.48;98368.97;5081645;28;20409;-77
2021/11/28 04:33:57;;;;;;;9.52;5.57;;;;;;;3.29;80.07;98357.72;5082738;28;20409;-77
2021/11/28 04:36:22;;;;;;;12.00;6.57;;;;;;;3.26;80.56;98371.56;5090074;28;20378;-77
2021/11/28 04:38:47;;;;;;;7.37;5.37;;;;;;;3.23;80.20;98366.72;5056340;28;20412;-77
2021/11/28 04:41:12;;;;;;;6.63;5.10;;;;;;;3.25;80.44;98364.63;5091480;28;20397;-77
2021/11/28 04:43:38;;;;;;;7.13;5.27;;;;;;;3.25;80.50;98369.97;5088308;28;20438;-77
2021/11/28 04:46:03;;;;;;;8.83;5.70;;;;;;;3.24;80.83;98375.56;5077475;28;20394;-77
2021/11/28 04:48:28;;;;;;;7.77;5.13;;;;;;;3.24;81.17;98370.22;5076030;28;20502;-77
2021/11/28 04:50:53;;;;;;;7.07;6.17;;;;;;;3.26;80.58;98368.13;5091983;28;20413;-77
2021/11/28 04:53:20;;;;;;;8.20;5.57;;;;;;;3.34;79.97;98363.13;5082153;28;20972;-77
2021/11/28 04:55:45;;;;;;;8.48;5.60;;;;;;;3.22;80.43;98358.94;5089382;28;20531;-77
2021/11/28 04:58:11;;;;;;;7.57;5.40;;;;;;;3.16;80.46;98354.59;5073505;28;20494;-77
2021/11/28 05:00:36;;;;;;;7.82;5.35;;;;;;;3.18;80.29;98360.50;5054760;28;20415;-77
2021/11/28 05:03:02;;;;;;;7.07;5.07;;;;;;;3.15;80.47;98361.81;5054919;28;20388;-77
2021/11/28 05:05:27;;;;;;;7.40;5.10;;;;;;;3.13;80.31;98364.72;5083865;28;20402;-77
2021/11/28 05:07:54;;;;;;;9.17;6.50;;;;;;;3.27;80.00;98377.75;5075922;28;20862;-77
2021/11/28 05:10:19;;;;;;;6.72;5.30;;;;;;;3.29;79.86;98372.97;5072389;28;20452;-77
2021/11/28 05:12:45;;;;;;;6.87;5.20;;;;;;;3.31;79.89;98377.00;5074161;28;20412;-77
2021/11/28 05:15:11;;;;;;;7.00;5.03;;;;;;;3.32;80.13;98375.16;5088605;28;20460;-78
2021/11/28 05:17:36;;;;;;;8.03;5.27;;;;;;;3.20;80.80;98372.56;5089398;28;20390;-77
2021/11/28 05:20:04;;;;;;;10.33;6.20;;;;;;;3.19;80.87;98376.31;5077971;28;20406;-77
2021/11/28 05:22:29;;;;;;;8.57;6.18;;;;;;;3.19;80.97;98370.16;5084982;28;20440;-77
2021/11/28 05:24:55;;;;;;;7.78;5.85;;;;;;;3.21;80.99;98374.19;5084433;28;20480;-77
2021/11/28 05:27:20;;;;;;;9.80;7.30;;;;;;;3.25;80.94;98380.69;5085602;28;20409;-77
2021/11/28 05:29:46;;;;;;;10.70;6.50;;;;;;;3.23;81.05;98377.44;5072812;28;20391;-77
2021/11/28 05:32:12;;;;;;;8.07;5.57;;;;;;;3.21;81.12;98376.88;5071318;28;20770;-76
2021/11/28 05:34:37;;;;;;;9.18;5.57;;;;;;;3.20;81.36;98383.28;5073097;28;20750;-76
2021/11/28 05:37:03;;;;;;;7.40;5.72;;;;;;;3.20;81.34;98377.91;5072537;28;20395;-77
2021/11/28 05:39:28;;;;;;;8.82;5.65;;;;;;;3.16;81.21;98376.00;5087890;28;20417;-77
2021/11/28 05:41:54;;;;;;;11.57;6.27;;;;;;;3.15;80.96;98375.19;5075755;28;20406;-77
2021/11/28 05:44:19;;;;;;;7.70;5.80;;;;;;;3.15;81.00;98372.53;5086726;28;20397;-77
2021/11/28 05:46:44;;;;;;;7.03;5.50;;;;;;;3.17;80.63;98373.06;5085537;28;20873;-77
2021/11/28 05:49:09;;;;;;;9.17;5.93;;;;;;;3.15;80.81;98372.53;5075875;28;20877;-77
2021/11/28 05:51:35;;;;;;;6.73;6.03;;;;;;;3.12;80.77;98371.16;5087401;28;20408;-77
2021/11/28 05:54:00;;;;;;;9.70;5.83;;;;;;;3.11;81.16;98374.06;5071908;28;20779;-77
2021/11/28 05:56:28;;;;;;;7.47;5.80;;;;;;;3.13;81.28;98374.63;5079551;28;20403;-77
2021/11/28 05:58:54;;;;;;;9.53;5.53;;;;;;;3.13;81.02;98382.66;5082423;28;20426;-76
2021/11/28 06:01:19;;;;;;;8.10;5.93;;;;;;;3.16;81.27;98382.19;5087607;28;20392;-76
2021/11/28 06:03:44;;;;;;;10.27;6.50;;;;;;;3.16;81.45;98379.50;5053867;28;20400;-76
2021/11/28 06:06:10;;;;;;;6.45;5.78;;;;;;;3.16;81.53;98371.47;5083656;28;20460;-76
2021/11/28 06:08:35;;;;;;;9.40;5.73;;;;;;;3.15;81.47;98380.53;5076756;28;20398;-77
2021/11/28 06:11:00;;;;;;;10.13;5.97;;;;;;;3.14;81.64;98369.03;5103003;28;20812;-76
2021/11/28 06:13:26;;;;;;;7.20;5.63;;;;;;;3.15;81.48;98372.53;5076339;28;20939;-77
2021/11/28 06:15:51;;;;;;;8.15;5.80;;;;;;;3.16;81.62;98363.44;5070872;28;20457;-76
2021/11/28 06:18:16;;;;;;;6.73;5.33;;;;;;;3.18;81.35;98369.34;5085931;28;20401;-76
2021/11/28 06:20:42;;;;;;;6.80;5.57;;;;;;;3.18;81.09;98363.19;5073503;28;20447;-76
2021/11/28 06:23:07;;;;;;;8.80;6.07;;;;;;;3.15;80.93;98367.16;5075403;28;20394;-77
2021/11/28 06:25:32;;;;;;;6.30;5.23;;;;;;;3.17;81.23;98374.94;5085350;28;20398;-76
2021/11/28 06:27:58;;;;;;;7.33;5.00;;;;;;;3.17;80.94;98366.91;5078163;28;20403;-77
2021/11/28 06:30:23;;;;;;;5.33;4.80;;;;;;;3.15;80.62;98375.19;5087505;28;20403;-77
2021/11/28 06:32:49;;;;;;;6.00;5.40;;;;;;;3.12;80.67;98375.69;5088713;28;20928;-76
2021/11/28 06:35:15;;;;;;;8.32;5.10;;;;;;;3.06;81.07;98371.34;5071398;28;20948;-76
2021/11/28 06:37:41;;;;;;;6.73;5.20;;;;;;;2.99;80.96;98373.38;5082977;28;20481;-77
2021/11/28 06:40:06;;;;;;;6.60;5.50;;;;;;;2.97;81.38;98378.94;5075106;28;20428;-76
2021/11/28 06:42:32;;;;;;;8.70;5.53;;;;;;;3.00;81.43;98383.00;5054742;28;20471;-77
2021/11/28 06:44:57;;;;;;;7.20;5.40;;;;;;;3.04;81.81;98386.81;5084795;28;20811;-77
2021/11/28 06:47:23;;;;;;;7.33;5.50;;;;;;;3.06;81.37;98382.03;5067637;28;20411;-77
2021/11/28 06:49:48;;;;;;;6.77;4.87;;;;;;;3.08;81.64;98394.09;5076819;28;20435;-77
2021/11/28 06:52:13;;;;;;;10.00;6.20;;;;;;;3.05;81.53;98383.09;5072105;28;20899;-76
2021/11/28 06:54:39;;;;;;;13.07;8.50;;;;;;;2.96;81.92;98389.91;5077286;28;20402;-77
2021/11/28 06:57:05;;;;;;;12.20;10.13;;;;;;;2.90;82.10;98388.19;5072488;28;20475;-77
2021/11/28 06:59:31;;;;;;;12.27;7.38;;;;;;;2.88;81.87;98391.13;5071464;28;20404;-77
2021/11/28 07:01:57;;;;;;;12.57;8.85;;;;;;;2.86;81.93;98393.25;5102899;28;20714;-77
2021/11/28 07:04:22;;;;;;;9.20;7.10;;;;;;;2.88;81.97;98391.13;5068556;28;20449;-76
2021/11/28 07:06:48;;;;;;;11.27;7.73;;;;;;;2.95;82.23;98399.00;5077666;28;20396;-76
2021/11/28 07:09:13;;;;;;;8.93;5.97;;;;;;;2.97;81.98;98396.88;5083394;28;20749;-76
2021/11/28 07:11:38;;;;;;;6.55;4.80;;;;;;;2.98;82.31;98396.63;5075045;28;20817;-77
2021/11/28 07:14:04;;;;;;;8.80;5.43;;;;;;;2.99;81.93;98398.25;5079278;28;20401;-77
2021/11/28 07:16:29;;;;;;;7.50;5.10;;;;;;;3.01;81.92;98408.72;5070012;28;20388;-76
2021/11/28 07:18:54;;;;;;;8.75;6.35;;;;;;;3.05;81.66;98404.50;5076966;28;20413;-76
2021/11/28 07:21:20;;;;;;;7.10;5.80;;;;;;;3.06;81.86;98406.91;5081906;28;20394;-77
2021/11/28 07:23:46;;;;;;;7.90;5.70;;;;;;;3.11;82.01;98411.53;5087328;28;20433;-76
2021/11/28 07:26:12;;;;;;;10.15;5.60;;;;;;;3.13;81.56;98410.22;5110380;28;20394;-76
2021/11/28 07:28:37;;;;;;;6.78;5.03;;;;;;;3.14;81.72;98398.47;5080419;28;20391;-76
2021/11/28 07:31:05;;;;;;;8.73;5.13;;;;;;;3.18;81.77;98404.13;5085614;28;20400;-76
2021/11/28 07:33:30;;;;;;;7.07;4.45;;;;;;;3.21;81.59;98409.00;5092161;28;20439;-76
2021/11/28 07:35:55;;;;;;;8.60;4.87;;;;;;;3.24;81.60;98410.34;5083642;28;20592;-77
2021/11/28 07:38:21;;;;;;;5.77;4.83;;;;;;;3.27;81.43;98412.53;5090630;28;20475;-76
2021/11/28 07:40:46;;;;;;;7.67;5.90;;;;;;;3.28;81.40;98417.66;5089299;28;20417;-76
2021/11/28 07:43:13;;;;;;;7.37;5.37;;;;;;;3.31;81.19;98419.03;5076051;28;20403;-76
2021/11/28 07:45:39;;;;;;;7.80;5.73;;;;;;;3.30;81.36;98415.53;5077512;28;20847;-77
2021/11/28 07:48:05;;;;;;;10.67;6.07;;;;;;;3.29;81.68;98418.47;5076559;28;20428;-77
2021/11/28 07:50:30;;;;;;;9.07;7.00;;;;;;;3.27;81.29;98426.75;5092575;28;20423;-77
2021/11/28 07:52:56;;;;;;;8.57;6.20;;;;;;;3.23;81.29;98425.59;5082421;28;20448;-76
2021/11/28 07:55:22;;;;;;;10.55;6.70;;;;;;;3.21;81.48;98429.59;5073704;28;20435;-77
2021/11/28 07:57:47;;;;;;;9.48;6.30;;;;;;;3.21;81.53;98432.28;5077824;28;20418;-76
2021/11/28 08:00:14;;;;;;;8.97;7.00;;;;;;;3.25;81.48;98436.91;5090710;28;21129;-77
2021/11/28 08:02:39;;;;;;;9.03;6.60;;;;;;;3.31;81.47;98441.25;5083044;28;20419;-77
2021/11/28 08:05:06;;;;;;;12.93;7.00;;;;;;;3.36;81.60;98441.31;5091427;28;20813;-77
2021/11/28 08:07:31;;;;;;;7.78;6.18;;;;;;;3.37;81.56;98448.28;5091425;28;20402;-76
2021/11/28 08:09:57;;;;;;;10.60;6.13;;;;;;;3.40;81.48;98442.44;5082208;28;20410;-76
2021/11/28 08:12:23;;;;;;;7.77;5.43;;;;;;;3.48;81.16;98442.03;5074953;28;20889;-77
2021/11/28 08:14:49;;;;;;;10.35;6.53;;;;;;;3.59;80.94;98449.13;5088543;28;20402;-76
2021/11/28 08:17:14;;;;;;;13.52;8.02;;;;;;;3.67;81.04;98451.38;5072154;28;20403;-76
2021/11/28 08:19:40;;;;;;;8.90;6.63;;;;;;;3.74;80.90;98453.88;5087794;28;20876;-76
2021/11/28 08:22:07;;;;;;;8.80;5.82;;;;;;;3.78;80.65;98457.69;5072649;28;20896;-76
2021/11/28 08:24:32;;;;;;;7.95;6.28;;;;;;;3.78;80.49;98457.69;5069425;28;20414;-76
2021/11/28 08:26:57;;;;;;;8.77;5.57;;;;;;;3.79;80.40;98453.91;5088491;28;20877;-76
2021/11/28 08:29:23;;;;;;;8.47;5.70;;;;;;;3.86;80.27;98457.22;5073077;28;21032;-76
2021/11/28 08:31:48;;;;;;;10.27;5.90;;;;;;;3.93;80.02;98454.34;5079370;28;20459;-77
2021/11/28 08:34:14;;;;;;;9.60;5.67;;;;;;;3.99;79.65;98446.13;5091940;28;20511;-78
2021/11/28 08:36:40;;;;;;;7.40;5.43;;;;;;;4.09;79.58;98450.78;5074818;28;20494;-77
2021/11/28 08:39:05;;;;;;;7.40;5.80;;;;;;;4.26;79.06;98456.03;5088070;28;20786;-77
2021/11/28 08:41:31;;;;;;;9.83;6.47;;;;;;;4.35;78.84;98459.88;5073471;28;21025;-77
2021/11/28 08:43:56;;;;;;;9.77;6.93;;;;;;;4.44;78.32;98458.38;5079784;28;20402;-77
2021/11/28 08:46:23;;;;;;;10.20;6.23;;;;;;;4.60;78.52;98460.16;5074253;28;20427;-77
2021/11/28 08:48:48;;;;;;;7.95;5.85;;;;;;;4.70;78.27;98453.00;5072515;28;20411;-77
2021/11/28 08:51:14;;;;;;;6.18;5.20;;;;;;;4.75;77.91;98462.13;5081783;28;20820;-77
2021/11/28 08:53:40;;;;;;;6.22;4.55;;;;;;;4.76;78.01;98466.44;5081426;28;20485;-77
2021/11/28 08:56:06;;;;;;;6.22;4.85;;;;;;;4.69;78.08;98463.97;5084014;28;20487;-77
2021/11/28 08:58:32;;;;;;;11.18;5.00;;;;;;;4.63;77.99;98479.22;5077561;28;20866;-77
2021/11/28 09:00:58;;;;;;;6.72;5.25;;;;;;;4.62;78.06;98480.28;5087360;28;20421;-77
2021/11/28 09:03:23;;;;;;;9.17;5.20;;;;;;;4.58;78.03;98481.84;5081155;28;20769;-77
2021/11/28 09:05:57;;;;;;;7.17;5.90;;;;;;;4.55;78.22;98482.34;5082834;28;20913;-78
2021/11/28 09:08:23;;;;;;;7.03;5.35;;;;;;;4.63;78.73;98486.47;5076524;28;20400;-77
2021/11/28 09:10:49;;;;;;;12.87;6.87;;;;;;;4.80;77.86;98491.72;5084000;28;20405;-77
2021/11/28 09:13:14;;;;;;;10.20;6.13;;;;;;;4.91;77.36;98483.47;5085881;28;20850;-77
2021/11/28 09:15:39;;;;;;;9.03;5.23;;;;;;;5.00;77.41;98484.66;5077236;28;20402;-77
2021/11/28 09:18:08;;;;;;;6.13;4.63;;;;;;;5.11;77.32;98482.81;5069874;28;20581;-77
2021/11/28 09:20:34;;;;;;;6.23;5.63;;;;;;;5.15;77.17;98486.63;5077642;28;20420;-76
2021/11/28 09:25:30;;;;;;;8.60;5.88;;;;;;;5.23;76.38;98491.53;5076797;28;20405;-75
2021/11/28 09:27:57;;;;;;;8.50;5.45;;;;;;;5.25;76.85;98481.31;5072633;28;20407;-76
2021/11/28 09:30:24;;;;;;;8.48;4.97;;;;;;;5.32;76.14;98481.91;5085262;28;20439;-76
2021/11/28 09:32:54;;;;;;;9.93;5.63;;;;;;;5.34;75.71;98481.63;5072306;28;20403;-76
2021/11/28 09:35:20;;;;;;;8.07;5.05;;;;;;;5.37;76.11;98484.63;5087778;28;20403;-76
2021/11/28 09:37:49;;;;;;;8.65;5.07;;;;;;;5.38;75.79;98480.06;5072437;28;20399;-76
2021/11/28 09:40:26;;;;;;;9.70;4.80;;;;;;;5.36;75.95;98477.66;5076516;28;20530;-76
2021/11/28 09:42:58;;;;;;;7.03;4.85;;;;;;;5.41;76.06;98483.03;5073794;28;20415;-76
2021/11/28 09:45:31;;;;;;;6.43;4.65;;;;;;;5.47;75.95;98482.00;5101737;28;20447;-76
2021/11/28 09:47:57;;;;;;;6.68;4.70;;;;;;;5.41;75.32;98487.59;5064318;28;20395;-76
2021/11/28 09:50:24;;;;;;;6.93;4.45;;;;;;;5.29;75.59;98485.13;5070935;28;20400;-76
2021/11/28 09:52:51;;;;;;;6.32;5.40;;;;;;;5.21;76.00;98481.03;5075518;28;20452;-77
2021/11/28 09:55:17;;;;;;;6.50;4.43;;;;;;;5.12;75.97;98474.53;5084174;28;20885;-76
2021/11/28 09:57:42;;;;;;;5.72;4.38;;;;;;;5.07;76.26;98487.91;5079654;28;20430;-77
2021/11/28 10:00:10;;;;;;;5.67;4.63;;;;;;;5.00;76.28;98481.97;5075327;28;20420;-76
2021/11/28 10:02:36;;;;;;;6.97;4.68;;;;;;;4.95;76.13;98475.72;5078147;28;21023;-76
2021/11/28 10:05:06;;;;;;;5.53;4.30;;;;;;;4.93;76.37;98481.38;5073056;28;20498;-76
2021/11/28 10:07:31;;;;;;;7.68;4.85;;;;;;;4.88;76.67;98484.00;5077661;28;20390;-76
2021/11/28 10:09:57;;;;;;;6.30;4.03;;;;;;;4.93;76.78;98481.38;5073353;28;20414;-76
2021/11/28 10:15:54;;;;;;;8.30;5.03;;;;;;;5.21;76.77;98464.09;5031174;28;20456;-76
2021/11/28 10:18:20;;;;;;;11.60;7.77;;;;;;;5.20;76.48;98462.50;5089620;28;20394;-76
2021/11/28 10:20:47;;;;;;;7.32;4.55;;;;;;;5.19;75.58;98464.38;5073899;28;20882;-76
2021/11/28 10:23:12;;;;;;;5.78;3.75;;;;;;;5.16;74.07;98459.53;5076252;28;20402;-75
2021/11/28 10:25:39;;;;;;;6.07;4.05;;;;;;;5.21;74.41;98456.84;5083898;28;20386;-75
2021/11/28 10:28:09;;;;;;;8.77;5.13;;;;;;;5.24;75.22;98456.34;5058453;28;20533;-76
2021/11/28 10:30:38;;;;;;;5.20;4.00;;;;;;;5.35;74.83;98454.53;5080233;28;20418;-76
2021/11/28 10:33:22;;;;;;;4.32;3.53;;;;;;;5.39;74.32;98449.44;5079986;28;20467;-76
2021/11/28 10:36:05;;;;;;;5.30;3.80;;;;;;;5.47;74.24;98452.44;5072593;28;20396;-76
2021/11/28 10:38:36;;;;;;;3.38;3.08;;;;;;;5.52;74.58;98446.31;5050786;28;20443;-75
2021/11/28 10:41:17;;;;;;;7.03;3.90;;;;;;;5.57;74.52;98436.38;5076216;28;20770;-75
2021/11/28 10:43:42;;;;;;;4.22;3.72;;;;;;;5.65;73.16;98435.09;5056265;28;20403;-76
2021/11/28 10:46:23;;;;;;;6.00;4.03;;;;;;;5.68;72.87;98438.06;5042518;28;20412;-78
2021/11/28 10:49:02;;;;;;;6.45;4.40;;;;;;;5.74;73.66;98437.00;5049376;28;20411;-77
2021/11/28 10:51:27;;;;;;;7.82;4.38;;;;;;;5.83;73.85;98439.19;5055256;28;21254;-76
2021/11/28 10:53:54;;;;;;;4.63;3.90;;;;;;;5.78;74.02;98434.59;5071982;28;20506;-76
2021/11/28 10:56:25;;;;;;;6.95;4.25;;;;;;;5.75;74.05;98421.69;5056068;28;20454;-76
2021/11/28 10:58:52;;;;;;;7.32;4.53;;;;;;;6.09;73.88;98433.66;5058474;28;20557;-76
2021/11/28 11:01:17;;;;;;;6.35;4.20;;;;;;;6.28;73.36;98431.28;5060823;28;20414;-76
2021/11/28 11:03:52;;;;;;;5.60;3.93;;;;;;;6.41;72.16;98429.97;5087932;28;20457;-76
2021/11/28 11:06:21;;;;;;;4.70;3.72;;;;;;;6.40;71.91;98428.34;5081518;28;20413;-76
2021/11/28 11:09:11;;;;;;;6.07;4.07;;;;;;;6.36;71.79;98428.06;5082045;28;20479;-77
2021/11/28 11:11:37;;;;;;;6.65;3.95;;;;;;;6.14;72.36;98439.06;5087250;28;20405;-80
2021/11/28 11:14:04;;;;;;;5.10;3.83;;;;;;;5.99;72.94;98430.16;5077735;28;20396;-76
2021/11/28 11:16:39;;;;;;;5.22;3.88;;;;;;;5.93;72.64;98440.06;5076312;28;20461;-77
2021/11/28 11:19:41;;;;;;;4.03;3.55;;;;;;;5.92;72.64;98441.13;5069950;28;20412;-76
2021/11/28 11:22:18;;;;;;;3.45;3.15;;;;;;;5.86;72.52;98441.38;5065520;28;20433;-76
2021/11/28 11:24:51;;;;;;;6.85;4.75;;;;;;;5.88;73.38;98436.53;5077489;28;20480;-76
2021/11/28 11:27:18;;;;;;;5.15;3.20;;;;;;;5.83;73.56;98431.13;5087062;28;20487;-76
2021/11/28 11:29:49;;;;;;;3.13;2.40;;;;;;;5.85;73.36;98440.53;5090448;28;20393;-77
2021/11/28 11:32:23;;;;;;;4.38;3.28;;;;;;;5.92;72.30;98440.34;5085808;28;20394;-76
2021/11/28 11:34:58;;;;;;;5.37;3.73;;;;;;;5.92;71.44;98435.75;5083342;28;20394;-76
2021/11/28 11:37:26;;;;;;;6.25;3.60;;;;;;;5.91;71.29;98438.69;5072349;28;20945;-76
2021/11/28 11:43:11;;;;;;;5.05;3.88;;;;;;;5.89;73.78;98438.97;5058798;28;20476;-76
2021/11/28 11:45:38;;;;;;;5.07;4.10;;;;;;;5.81;73.40;98439.44;5066559;28;20466;-76
2021/11/28 11:48:05;;;;;;;3.88;3.25;;;;;;;5.73;74.10;98437.25;5087283;28;20406;-76
2021/11/28 11:50:32;;;;;;;4.13;3.10;;;;;;;5.76;74.73;98434.06;5063968;28;20770;-76